sensor_id;sensor_type;location;lat;lon;timestamp;P1;durP1;ratioP1;P2;durP2;ratioP2
37873;SDS011;23709;48.078;11.684;2023-03-15T00:01:15;5.95;;;1.95;;
37873;SDS011;23709;48.078;11.684;2023-03-15T00:03:49;4.45;;;1.52;;
37873;SDS011;23709;48.078;11.684;2023-03-15T00:06:21;5.53;;;1.75;;
37873;SDS011;23709;48.078;11.684;2023-03-15T00:08:53;4.90;;;1.77;;
37873;SDS011;23709;48.078;11.684;2023-03-15T00:11:25;3.95;;;2.03;;
37873;SDS011;23709;48.078;11.684;2023-03-15T00:13:57;4.05;;;1.70;;
37873;SDS011;23709;48.078;11.684;2023-03-15T00:16:29;2.65;;;1.42;;
37873;SDS011;23709;48.078;11.684;2023-03-15T00:19:03;3.85;;;1.75;;
37873;SDS011;23709;48.078;11.684;2023-03-15T00:21:35;3.65;;;1.20;;
37873;SDS011;23709;48.078;11.684;2023-03-15T00:24:08;2.60;;;1.27;;
37873;SDS011;23709;48.078;11.684;2023-03-15T00:26:42;2.03;;;1.35;;
37873;SDS011;23709;48.078;11.684;2023-03-15T00:29:14;4.40;;;1.40;;
37873;SDS011;23709;48.078;11.684;2023-03-15T00:31:46;1.10;;;0.90;;
37873;SDS011;23709;48.078;11.684;2023-03-15T00:34:18;2.60;;;1.63;;
37873;SDS011;23709;48.078;11.684;2023-03-15T00:36:56;1.02;;;0.80;;
37873;SDS011;23709;48.078;11.684;2023-03-15T00:39:28;4.40;;;1.80;;
37873;SDS011;23709;48.078;11.684;2023-03-15T00:42:00;3.17;;;1.90;;
37873;SDS011;23709;48.078;11.684;2023-03-15T00:44:32;4.80;;;1.98;;
37873;SDS011;23709;48.078;11.684;2023-03-15T00:47:04;5.00;;;3.10;;
37873;SDS011;23709;48.078;11.684;2023-03-15T00:49:36;6.15;;;2.10;;
37873;SDS011;23709;48.078;11.684;2023-03-15T00:54:43;3.30;;;2.17;;
37873;SDS011;23709;48.078;11.684;2023-03-15T00:57:25;3.45;;;2.20;;
37873;SDS011;23709;48.078;11.684;2023-03-15T00:59:57;4.53;;;2.63;;
37873;SDS011;23709;48.078;11.684;2023-03-15T01:02:31;6.22;;;2.53;;
37873;SDS011;23709;48.078;11.684;2023-03-15T01:05:04;8.88;;;2.70;;
37873;SDS011;23709;48.078;11.684;2023-03-15T01:07:37;8.05;;;2.72;;
37873;SDS011;23709;48.078;11.684;2023-03-15T01:10:10;8.70;;;2.70;;
37873;SDS011;23709;48.078;11.684;2023-03-15T01:12:43;6.53;;;2.35;;
37873;SDS011;23709;48.078;11.684;2023-03-15T01:15:16;6.68;;;2.38;;
37873;SDS011;23709;48.078;11.684;2023-03-15T01:17:48;4.25;;;2.33;;
37873;SDS011;23709;48.078;11.684;2023-03-15T01:20:21;4.53;;;1.75;;
37873;SDS011;23709;48.078;11.684;2023-03-15T01:22:53;4.95;;;1.70;;
37873;SDS011;23709;48.078;11.684;2023-03-15T01:25:25;2.78;;;1.80;;
37873;SDS011;23709;48.078;11.684;2023-03-15T01:27:57;4.03;;;1.90;;
37873;SDS011;23709;48.078;11.684;2023-03-15T01:30:29;2.53;;;1.48;;
37873;SDS011;23709;48.078;11.684;2023-03-15T01:33:01;4.88;;;1.75;;
37873;SDS011;23709;48.078;11.684;2023-03-15T01:35:34;2.13;;;1.80;;
37873;SDS011;23709;48.078;11.684;2023-03-15T01:38:06;2.30;;;1.60;;
37873;SDS011;23709;48.078;11.684;2023-03-15T01:40:43;3.50;;;1.70;;
37873;SDS011;23709;48.078;11.684;2023-03-15T01:43:22;2.72;;;1.65;;
37873;SDS011;23709;48.078;11.684;2023-03-15T01:48:38;2.38;;;1.40;;
37873;SDS011;23709;48.078;11.684;2023-03-15T01:51:23;8.80;;;4.63;;
37873;SDS011;23709;48.078;11.684;2023-03-15T01:54:08;2.67;;;1.50;;
37873;SDS011;23709;48.078;11.684;2023-03-15T01:56:49;2.72;;;1.60;;
37873;SDS011;23709;48.078;11.684;2023-03-15T01:59:42;2.30;;;1.80;;
37873;SDS011;23709;48.078;11.684;2023-03-15T02:02:46;2.97;;;1.90;;
37873;SDS011;23709;48.078;11.684;2023-03-15T02:05:29;3.45;;;2.03;;
37873;SDS011;23709;48.078;11.684;2023-03-15T02:08:07;2.55;;;2.15;;
37873;SDS011;23709;48.078;11.684;2023-03-15T02:10:43;4.40;;;1.80;;
37873;SDS011;23709;48.078;11.684;2023-03-15T02:13:20;3.50;;;1.98;;
37873;SDS011;23709;48.078;11.684;2023-03-15T02:15:55;5.22;;;2.17;;
37873;SDS011;23709;48.078;11.684;2023-03-15T02:18:34;3.85;;;2.70;;
37873;SDS011;23709;48.078;11.684;2023-03-15T02:21:12;2.42;;;1.80;;
37873;SDS011;23709;48.078;11.684;2023-03-15T02:23:56;2.92;;;1.77;;
37873;SDS011;23709;48.078;11.684;2023-03-15T02:26:56;3.97;;;2.15;;
37873;SDS011;23709;48.078;11.684;2023-03-15T02:29:29;3.30;;;2.13;;
37873;SDS011;23709;48.078;11.684;2023-03-15T02:32:01;4.05;;;2.63;;
37873;SDS011;23709;48.078;11.684;2023-03-15T02:34:35;3.80;;;2.38;;
37873;SDS011;23709;48.078;11.684;2023-03-15T02:37:07;3.90;;;2.35;;
37873;SDS011;23709;48.078;11.684;2023-03-15T02:39:39;3.83;;;2.20;;
37873;SDS011;23709;48.078;11.684;2023-03-15T02:42:11;3.83;;;2.25;;
37873;SDS011;23709;48.078;11.684;2023-03-15T02:44:44;4.10;;;2.50;;
37873;SDS011;23709;48.078;11.684;2023-03-15T02:47:24;4.65;;;2.25;;
37873;SDS011;23709;48.078;11.684;2023-03-15T02:50:03;4.95;;;2.85;;
37873;SDS011;23709;48.078;11.684;2023-03-15T02:52:38;3.80;;;2.70;;
37873;SDS011;23709;48.078;11.684;2023-03-15T02:55:10;3.70;;;2.60;;
37873;SDS011;23709;48.078;11.684;2023-03-15T02:57:43;6.13;;;3.38;;
37873;SDS011;23709;48.078;11.684;2023-03-15T03:00:15;5.57;;;3.33;;
37873;SDS011;23709;48.078;11.684;2023-03-15T03:02:48;4.97;;;2.92;;
37873;SDS011;23709;48.078;11.684;2023-03-15T03:05:20;6.40;;;4.00;;
37873;SDS011;23709;48.078;11.684;2023-03-15T03:07:52;5.78;;;3.03;;
37873;SDS011;23709;48.078;11.684;2023-03-15T03:10:25;5.68;;;3.92;;
37873;SDS011;23709;48.078;11.684;2023-03-15T03:13:01;5.25;;;3.53;;
37873;SDS011;23709;48.078;11.684;2023-03-15T03:15:37;6.22;;;3.80;;
37873;SDS011;23709;48.078;11.684;2023-03-15T03:18:09;5.90;;;2.90;;
37873;SDS011;23709;48.078;11.684;2023-03-15T03:20:41;10.02;;;3.97;;
37873;SDS011;23709;48.078;11.684;2023-03-15T03:23:16;4.65;;;2.97;;
37873;SDS011;23709;48.078;11.684;2023-03-15T03:25:49;6.90;;;3.27;;
37873;SDS011;23709;48.078;11.684;2023-03-15T03:28:21;4.85;;;3.10;;
37873;SDS011;23709;48.078;11.684;2023-03-15T03:30:58;8.43;;;3.38;;
37873;SDS011;23709;48.078;11.684;2023-03-15T03:33:32;14.55;;;4.07;;
37873;SDS011;23709;48.078;11.684;2023-03-15T03:36:04;7.90;;;3.42;;
37873;SDS011;23709;48.078;11.684;2023-03-15T03:38:40;16.57;;;5.87;;
37873;SDS011;23709;48.078;11.684;2023-03-15T03:41:14;9.35;;;3.75;;
37873;SDS011;23709;48.078;11.684;2023-03-15T03:43:46;5.70;;;3.15;;
37873;SDS011;23709;48.078;11.684;2023-03-15T03:46:21;6.50;;;3.72;;
37873;SDS011;23709;48.078;11.684;2023-03-15T03:48:56;7.93;;;3.55;;
37873;SDS011;23709;48.078;11.684;2023-03-15T03:51:29;8.43;;;3.03;;
37873;SDS011;23709;48.078;11.684;2023-03-15T03:54:04;7.35;;;3.15;;
37873;SDS011;23709;48.078;11.684;2023-03-15T03:56:36;11.25;;;4.18;;
37873;SDS011;23709;48.078;11.684;2023-03-15T03:59:10;7.43;;;3.05;;
37873;SDS011;23709;48.078;11.684;2023-03-15T04:01:52;6.60;;;3.28;;
37873;SDS011;23709;48.078;11.684;2023-03-15T04:04:24;6.75;;;3.60;;
37873;SDS011;23709;48.078;11.684;2023-03-15T04:06:57;11.57;;;4.05;;
37873;SDS011;23709;48.078;11.684;2023-03-15T04:09:36;11.02;;;4.30;;
37873;SDS011;23709;48.078;11.684;2023-03-15T04:14:44;5.47;;;3.72;;
37873;SDS011;23709;48.078;11.684;2023-03-15T04:17:17;8.88;;;4.00;;
37873;SDS011;23709;48.078;11.684;2023-03-15T04:19:50;9.10;;;4.43;;
37873;SDS011;23709;48.078;11.684;2023-03-15T04:22:28;10.48;;;3.95;;
37873;SDS011;23709;48.078;11.684;2023-03-15T04:25:00;6.28;;;3.50;;
37873;SDS011;23709;48.078;11.684;2023-03-15T04:27:45;8.55;;;3.63;;
37873;SDS011;23709;48.078;11.684;2023-03-15T04:30:48;7.43;;;4.35;;
37873;SDS011;23709;48.078;11.684;2023-03-15T04:33:36;8.70;;;4.28;;
37873;SDS011;23709;48.078;11.684;2023-03-15T04:36:22;9.35;;;4.30;;
37873;SDS011;23709;48.078;11.684;2023-03-15T04:39:19;7.80;;;4.00;;
37873;SDS011;23709;48.078;11.684;2023-03-15T04:42:00;8.68;;;3.70;;
37873;SDS011;23709;48.078;11.684;2023-03-15T04:44:43;6.50;;;3.35;;
37873;SDS011;23709;48.078;11.684;2023-03-15T04:50:43;8.52;;;4.55;;
37873;SDS011;23709;48.078;11.684;2023-03-15T04:53:24;5.60;;;3.47;;
37873;SDS011;23709;48.078;11.684;2023-03-15T04:56:07;7.28;;;3.63;;
37873;SDS011;23709;48.078;11.684;2023-03-15T04:59:15;11.18;;;3.88;;
37873;SDS011;23709;48.078;11.684;2023-03-15T05:02:16;6.07;;;3.78;;
37873;SDS011;23709;48.078;11.684;2023-03-15T05:05:24;10.77;;;4.00;;
37873;SDS011;23709;48.078;11.684;2023-03-15T05:08:04;10.57;;;4.93;;
37873;SDS011;23709;48.078;11.684;2023-03-15T05:11:05;17.40;;;4.55;;
37873;SDS011;23709;48.078;11.684;2023-03-15T05:13:51;10.45;;;5.03;;
37873;SDS011;23709;48.078;11.684;2023-03-15T05:16:49;11.88;;;5.40;;
37873;SDS011;23709;48.078;11.684;2023-03-15T05:19:43;14.95;;;5.57;;
37873;SDS011;23709;48.078;11.684;2023-03-15T05:22:35;13.15;;;5.05;;
37873;SDS011;23709;48.078;11.684;2023-03-15T05:25:14;10.23;;;4.65;;
37873;SDS011;23709;48.078;11.684;2023-03-15T05:28:04;12.55;;;5.05;;
37873;SDS011;23709;48.078;11.684;2023-03-15T05:30:45;14.23;;;6.00;;
37873;SDS011;23709;48.078;11.684;2023-03-15T05:33:31;14.57;;;6.03;;
37873;SDS011;23709;48.078;11.684;2023-03-15T05:36:33;19.45;;;6.25;;
37873;SDS011;23709;48.078;11.684;2023-03-15T05:39:17;18.60;;;5.55;;
37873;SDS011;23709;48.078;11.684;2023-03-15T05:42:06;15.50;;;6.28;;
37873;SDS011;23709;48.078;11.684;2023-03-15T05:45:17;17.65;;;5.85;;
37873;SDS011;23709;48.078;11.684;2023-03-15T05:47:58;17.88;;;5.32;;
37873;SDS011;23709;48.078;11.684;2023-03-15T05:50:56;13.85;;;5.53;;
37873;SDS011;23709;48.078;11.684;2023-03-15T05:53:47;23.52;;;5.40;;
37873;SDS011;23709;48.078;11.684;2023-03-15T05:56:33;16.80;;;5.60;;
37873;SDS011;23709;48.078;11.684;2023-03-15T05:59:22;12.77;;;6.25;;
37873;SDS011;23709;48.078;11.684;2023-03-15T06:02:10;11.70;;;5.55;;
37873;SDS011;23709;48.078;11.684;2023-03-15T06:04:50;13.60;;;5.88;;
37873;SDS011;23709;48.078;11.684;2023-03-15T06:07:26;15.85;;;5.78;;
37873;SDS011;23709;48.078;11.684;2023-03-15T06:09:59;15.40;;;6.03;;
37873;SDS011;23709;48.078;11.684;2023-03-15T06:12:31;15.80;;;6.25;;
37873;SDS011;23709;48.078;11.684;2023-03-15T06:15:04;15.65;;;6.28;;
37873;SDS011;23709;48.078;11.684;2023-03-15T06:17:38;12.45;;;5.97;;
37873;SDS011;23709;48.078;11.684;2023-03-15T06:20:10;17.50;;;6.72;;
37873;SDS011;23709;48.078;11.684;2023-03-15T06:22:43;9.90;;;4.40;;
37873;SDS011;23709;48.078;11.684;2023-03-15T06:25:29;15.10;;;5.43;;
37873;SDS011;23709;48.078;11.684;2023-03-15T06:28:02;12.68;;;5.07;;
37873;SDS011;23709;48.078;11.684;2023-03-15T06:30:34;22.38;;;5.18;;
37873;SDS011;23709;48.078;11.684;2023-03-15T06:33:08;19.15;;;6.13;;
37873;SDS011;23709;48.078;11.684;2023-03-15T06:35:40;12.13;;;5.37;;
37873;SDS011;23709;48.078;11.684;2023-03-15T06:38:13;18.80;;;5.83;;
37873;SDS011;23709;48.078;11.684;2023-03-15T06:40:45;13.68;;;5.35;;
37873;SDS011;23709;48.078;11.684;2023-03-15T06:43:18;21.10;;;7.13;;
37873;SDS011;23709;48.078;11.684;2023-03-15T06:45:50;16.47;;;6.33;;
37873;SDS011;23709;48.078;11.684;2023-03-15T06:48:25;15.68;;;5.75;;
37873;SDS011;23709;48.078;11.684;2023-03-15T06:50:58;13.15;;;5.90;;
37873;SDS011;23709;48.078;11.684;2023-03-15T06:53:30;18.38;;;6.82;;
37873;SDS011;23709;48.078;11.684;2023-03-15T06:56:03;18.88;;;6.07;;
37873;SDS011;23709;48.078;11.684;2023-03-15T06:58:35;13.07;;;6.38;;
37873;SDS011;23709;48.078;11.684;2023-03-15T07:01:10;16.92;;;7.13;;
37873;SDS011;23709;48.078;11.684;2023-03-15T07:03:44;19.35;;;7.43;;
37873;SDS011;23709;48.078;11.684;2023-03-15T07:06:16;14.15;;;6.80;;
37873;SDS011;23709;48.078;11.684;2023-03-15T07:08:48;19.75;;;7.30;;
37873;SDS011;23709;48.078;11.684;2023-03-15T07:11:20;17.10;;;7.38;;
37873;SDS011;23709;48.078;11.684;2023-03-15T07:13:53;21.13;;;7.67;;
37873;SDS011;23709;48.078;11.684;2023-03-15T07:16:25;21.48;;;7.57;;
37873;SDS011;23709;48.078;11.684;2023-03-15T07:18:58;23.23;;;8.55;;
37873;SDS011;23709;48.078;11.684;2023-03-15T07:21:31;21.90;;;9.05;;
37873;SDS011;23709;48.078;11.684;2023-03-15T07:24:03;20.95;;;8.38;;
37873;SDS011;23709;48.078;11.684;2023-03-15T07:26:36;20.52;;;8.73;;
37873;SDS011;23709;48.078;11.684;2023-03-15T07:29:08;18.40;;;8.25;;
37873;SDS011;23709;48.078;11.684;2023-03-15T07:31:40;22.38;;;9.05;;
37873;SDS011;23709;48.078;11.684;2023-03-15T07:34:13;18.60;;;8.88;;
37873;SDS011;23709;48.078;11.684;2023-03-15T07:36:45;21.27;;;8.98;;
37873;SDS011;23709;48.078;11.684;2023-03-15T07:39:17;19.52;;;8.70;;
37873;SDS011;23709;48.078;11.684;2023-03-15T07:41:50;17.85;;;8.93;;
37873;SDS011;23709;48.078;11.684;2023-03-15T07:44:27;18.33;;;8.40;;
37873;SDS011;23709;48.078;11.684;2023-03-15T07:47:00;18.48;;;8.70;;
37873;SDS011;23709;48.078;11.684;2023-03-15T07:49:32;17.27;;;7.82;;
37873;SDS011;23709;48.078;11.684;2023-03-15T07:52:05;19.17;;;8.77;;
37873;SDS011;23709;48.078;11.684;2023-03-15T07:54:37;23.25;;;9.05;;
37873;SDS011;23709;48.078;11.684;2023-03-15T07:57:10;22.05;;;8.82;;
37873;SDS011;23709;48.078;11.684;2023-03-15T07:59:43;22.15;;;8.55;;
37873;SDS011;23709;48.078;11.684;2023-03-15T08:02:15;22.77;;;9.30;;
37873;SDS011;23709;48.078;11.684;2023-03-15T08:04:47;18.05;;;9.77;;
37873;SDS011;23709;48.078;11.684;2023-03-15T08:07:21;17.42;;;8.77;;
37873;SDS011;23709;48.078;11.684;2023-03-15T08:09:54;20.85;;;8.55;;
37873;SDS011;23709;48.078;11.684;2023-03-15T08:12:28;21.30;;;8.88;;
37873;SDS011;23709;48.078;11.684;2023-03-15T08:15:01;21.15;;;8.60;;
37873;SDS011;23709;48.078;11.684;2023-03-15T08:17:33;15.77;;;8.32;;
37873;SDS011;23709;48.078;11.684;2023-03-15T08:20:06;28.85;;;9.45;;
37873;SDS011;23709;48.078;11.684;2023-03-15T08:22:45;26.63;;;9.50;;
37873;SDS011;23709;48.078;11.684;2023-03-15T08:25:20;21.63;;;9.82;;
37873;SDS011;23709;48.078;11.684;2023-03-15T08:27:54;18.08;;;8.27;;
37873;SDS011;23709;48.078;11.684;2023-03-15T08:30:26;16.45;;;8.88;;
37873;SDS011;23709;48.078;11.684;2023-03-15T08:32:59;19.23;;;8.10;;
37873;SDS011;23709;48.078;11.684;2023-03-15T08:35:31;16.17;;;7.32;;
37873;SDS011;23709;48.078;11.684;2023-03-15T08:38:05;22.90;;;9.35;;
37873;SDS011;23709;48.078;11.684;2023-03-15T08:40:37;18.02;;;8.18;;
37873;SDS011;23709;48.078;11.684;2023-03-15T08:43:11;16.08;;;7.78;;
37873;SDS011;23709;48.078;11.684;2023-03-15T08:45:43;19.48;;;9.15;;
37873;SDS011;23709;48.078;11.684;2023-03-15T08:48:31;15.77;;;7.45;;
37873;SDS011;23709;48.078;11.684;2023-03-15T08:51:04;13.45;;;6.38;;
37873;SDS011;23709;48.078;11.684;2023-03-15T08:53:37;19.83;;;6.57;;
37873;SDS011;23709;48.078;11.684;2023-03-15T08:56:10;17.23;;;7.05;;
37873;SDS011;23709;48.078;11.684;2023-03-15T08:58:42;16.67;;;7.50;;
37873;SDS011;23709;48.078;11.684;2023-03-15T09:01:15;15.10;;;7.75;;
37873;SDS011;23709;48.078;11.684;2023-03-15T09:03:47;16.25;;;6.13;;
37873;SDS011;23709;48.078;11.684;2023-03-15T09:06:21;16.00;;;5.93;;
37873;SDS011;23709;48.078;11.684;2023-03-15T09:08:53;9.90;;;4.85;;
37873;SDS011;23709;48.078;11.684;2023-03-15T09:11:25;16.10;;;6.60;;
37873;SDS011;23709;48.078;11.684;2023-03-15T09:13:58;10.95;;;5.53;;
37873;SDS011;23709;48.078;11.684;2023-03-15T09:16:31;14.23;;;6.93;;
37873;SDS011;23709;48.078;11.684;2023-03-15T09:19:03;14.57;;;5.25;;
37873;SDS011;23709;48.078;11.684;2023-03-15T09:21:35;13.03;;;5.97;;
37873;SDS011;23709;48.078;11.684;2023-03-15T09:24:07;11.07;;;5.97;;
37873;SDS011;23709;48.078;11.684;2023-03-15T09:26:40;17.95;;;6.55;;
37873;SDS011;23709;48.078;11.684;2023-03-15T09:29:12;13.07;;;6.57;;
37873;SDS011;23709;48.078;11.684;2023-03-15T09:31:44;12.73;;;6.85;;
37873;SDS011;23709;48.078;11.684;2023-03-15T09:34:16;17.83;;;7.43;;
37873;SDS011;23709;48.078;11.684;2023-03-15T09:36:49;15.60;;;7.75;;
37873;SDS011;23709;48.078;11.684;2023-03-15T09:39:23;12.73;;;6.68;;
37873;SDS011;23709;48.078;11.684;2023-03-15T09:41:56;15.23;;;7.13;;
37873;SDS011;23709;48.078;11.684;2023-03-15T09:44:48;17.33;;;6.78;;
37873;SDS011;23709;48.078;11.684;2023-03-15T09:50:31;18.20;;;7.28;;
37873;SDS011;23709;48.078;11.684;2023-03-15T09:53:27;9.63;;;5.47;;
37873;SDS011;23709;48.078;11.684;2023-03-15T09:56:39;13.13;;;6.50;;
37873;SDS011;23709;48.078;11.684;2023-03-15T09:59:08;13.55;;;5.82;;
37873;SDS011;23709;48.078;11.684;2023-03-15T10:01:41;15.43;;;6.15;;
37873;SDS011;23709;48.078;11.684;2023-03-15T10:04:24;16.02;;;6.43;;
37873;SDS011;23709;48.078;11.684;2023-03-15T10:07:00;16.38;;;7.88;;
37873;SDS011;23709;48.078;11.684;2023-03-15T10:09:34;12.32;;;6.32;;
37873;SDS011;23709;48.078;11.684;2023-03-15T10:15:16;13.48;;;5.43;;
37873;SDS011;23709;48.078;11.684;2023-03-15T10:20:35;14.20;;;4.80;;
37873;SDS011;23709;48.078;11.684;2023-03-15T10:23:19;15.70;;;4.85;;
37873;SDS011;23709;48.078;11.684;2023-03-15T10:26:00;14.85;;;6.22;;
37873;SDS011;23709;48.078;11.684;2023-03-15T10:28:36;13.23;;;5.28;;
37873;SDS011;23709;48.078;11.684;2023-03-15T10:31:14;10.60;;;4.90;;
37873;SDS011;23709;48.078;11.684;2023-03-15T10:33:59;12.73;;;4.28;;
37873;SDS011;23709;48.078;11.684;2023-03-15T10:36:32;11.70;;;4.90;;
37873;SDS011;23709;48.078;11.684;2023-03-15T10:39:04;9.65;;;4.57;;
37873;SDS011;23709;48.078;11.684;2023-03-15T10:44:21;8.85;;;4.45;;
37873;SDS011;23709;48.078;11.684;2023-03-15T10:49:56;11.05;;;3.80;;
37873;SDS011;23709;48.078;11.684;2023-03-15T10:55:17;14.85;;;4.00;;
37873;SDS011;23709;48.078;11.684;2023-03-15T10:57:57;9.70;;;3.88;;
37873;SDS011;23709;48.078;11.684;2023-03-15T11:00:33;13.60;;;4.15;;
37873;SDS011;23709;48.078;11.684;2023-03-15T11:03:17;11.68;;;3.88;;
37873;SDS011;23709;48.078;11.684;2023-03-15T11:05:53;11.75;;;3.95;;
37873;SDS011;23709;48.078;11.684;2023-03-15T11:08:37;9.38;;;3.70;;
37873;SDS011;23709;48.078;11.684;2023-03-15T11:11:11;9.95;;;2.97;;
37873;SDS011;23709;48.078;11.684;2023-03-15T11:13:53;12.35;;;4.32;;
37873;SDS011;23709;48.078;11.684;2023-03-15T11:16:34;15.13;;;3.53;;
37873;SDS011;23709;48.078;11.684;2023-03-15T11:19:11;9.23;;;3.60;;
37873;SDS011;23709;48.078;11.684;2023-03-15T11:21:48;8.10;;;3.28;;
37873;SDS011;23709;48.078;11.684;2023-03-15T11:27:02;7.97;;;3.13;;
37873;SDS011;23709;48.078;11.684;2023-03-15T11:29:48;4.85;;;2.67;;
37873;SDS011;23709;48.078;11.684;2023-03-15T11:32:24;7.78;;;3.15;;
37873;SDS011;23709;48.078;11.684;2023-03-15T11:37:43;10.20;;;3.22;;
37873;SDS011;23709;48.078;11.684;2023-03-15T11:40:32;7.03;;;2.85;;
37873;SDS011;23709;48.078;11.684;2023-03-15T11:45:52;5.13;;;2.58;;
37873;SDS011;23709;48.078;11.684;2023-03-15T11:49:08;7.90;;;2.45;;
37873;SDS011;23709;48.078;11.684;2023-03-15T11:51:43;5.65;;;2.40;;
37873;SDS011;23709;48.078;11.684;2023-03-15T11:54:16;5.32;;;2.00;;
37873;SDS011;23709;48.078;11.684;2023-03-15T11:56:55;5.80;;;2.40;;
37873;SDS011;23709;48.078;11.684;2023-03-15T11:59:38;9.50;;;3.47;;
37873;SDS011;23709;48.078;11.684;2023-03-15T12:04:59;12.90;;;3.78;;
37873;SDS011;23709;48.078;11.684;2023-03-15T12:07:57;14.25;;;3.95;;
37873;SDS011;23709;48.078;11.684;2023-03-15T12:10:31;6.05;;;2.28;;
37873;SDS011;23709;48.078;11.684;2023-03-15T12:13:06;4.18;;;2.08;;
37873;SDS011;23709;48.078;11.684;2023-03-15T12:15:48;3.53;;;1.92;;
37873;SDS011;23709;48.078;11.684;2023-03-15T12:23:59;8.35;;;2.00;;
37873;SDS011;23709;48.078;11.684;2023-03-15T12:29:35;3.85;;;1.70;;
37873;SDS011;23709;48.078;11.684;2023-03-15T12:32:13;6.18;;;2.08;;
37873;SDS011;23709;48.078;11.684;2023-03-15T12:37:29;4.03;;;1.63;;
37873;SDS011;23709;48.078;11.684;2023-03-15T12:45:32;3.90;;;1.90;;
37873;SDS011;23709;48.078;11.684;2023-03-15T12:59:27;7.07;;;2.33;;
37873;SDS011;23709;48.078;11.684;2023-03-15T13:02:00;5.33;;;1.87;;
37873;SDS011;23709;48.078;11.684;2023-03-15T13:04:34;4.38;;;2.40;;
37873;SDS011;23709;48.078;11.684;2023-03-15T13:07:31;5.80;;;2.10;;
37873;SDS011;23709;48.078;11.684;2023-03-15T13:10:37;10.00;;;3.73;;
37873;SDS011;23709;48.078;11.684;2023-03-15T13:16:10;12.70;;;4.47;;
37873;SDS011;23709;48.078;11.684;2023-03-15T13:38:33;4.63;;;2.10;;
37873;SDS011;23709;48.078;11.684;2023-03-15T13:41:21;2.75;;;2.00;;
37873;SDS011;23709;48.078;11.684;2023-03-15T13:44:03;7.63;;;2.53;;
37873;SDS011;23709;48.078;11.684;2023-03-15T13:46:46;3.10;;;1.63;;
37873;SDS011;23709;48.078;11.684;2023-03-15T13:49:20;3.78;;;1.42;;
37873;SDS011;23709;48.078;11.684;2023-03-15T13:51:52;8.13;;;3.25;;
37873;SDS011;23709;48.078;11.684;2023-03-15T13:54:26;6.30;;;2.05;;
37873;SDS011;23709;48.078;11.684;2023-03-15T13:57:11;7.32;;;2.35;;
37873;SDS011;23709;48.078;11.684;2023-03-15T13:59:45;3.80;;;1.77;;
37873;SDS011;23709;48.078;11.684;2023-03-15T14:02:22;8.43;;;2.33;;
37873;SDS011;23709;48.078;11.684;2023-03-15T14:05:19;4.40;;;1.50;;
37873;SDS011;23709;48.078;11.684;2023-03-15T14:08:00;5.75;;;1.50;;
37873;SDS011;23709;48.078;11.684;2023-03-15T14:10:35;3.58;;;1.50;;
37873;SDS011;23709;48.078;11.684;2023-03-15T14:13:22;3.88;;;1.45;;
37873;SDS011;23709;48.078;11.684;2023-03-15T14:16:02;3.45;;;1.33;;
37873;SDS011;23709;48.078;11.684;2023-03-15T14:18:38;4.15;;;1.40;;
37873;SDS011;23709;48.078;11.684;2023-03-15T14:23:50;5.85;;;1.90;;
37873;SDS011;23709;48.078;11.684;2023-03-15T14:26:22;3.67;;;1.58;;
37873;SDS011;23709;48.078;11.684;2023-03-15T14:28:59;3.03;;;1.50;;
37873;SDS011;23709;48.078;11.684;2023-03-15T14:31:47;4.43;;;1.75;;
37873;SDS011;23709;48.078;11.684;2023-03-15T14:37:06;2.97;;;1.65;;
37873;SDS011;23709;48.078;11.684;2023-03-15T14:42:39;5.35;;;1.70;;
37873;SDS011;23709;48.078;11.684;2023-03-15T14:45:13;7.53;;;1.67;;
37873;SDS011;23709;48.078;11.684;2023-03-15T14:47:47;4.50;;;2.30;;
37873;SDS011;23709;48.078;11.684;2023-03-15T14:50:30;4.68;;;2.00;;
37873;SDS011;23709;48.078;11.684;2023-03-15T14:53:06;5.43;;;1.85;;
37873;SDS011;23709;48.078;11.684;2023-03-15T14:55:40;2.35;;;1.50;;
37873;SDS011;23709;48.078;11.684;2023-03-15T14:58:13;5.07;;;1.83;;
37873;SDS011;23709;48.078;11.684;2023-03-15T15:00:49;3.92;;;2.15;;
37873;SDS011;23709;48.078;11.684;2023-03-15T15:03:40;4.78;;;1.80;;
37873;SDS011;23709;48.078;11.684;2023-03-15T15:06:16;3.05;;;1.83;;
37873;SDS011;23709;48.078;11.684;2023-03-15T15:08:48;4.40;;;1.67;;
37873;SDS011;23709;48.078;11.684;2023-03-15T15:11:26;3.75;;;1.67;;
37873;SDS011;23709;48.078;11.684;2023-03-15T15:13:58;3.25;;;1.85;;
37873;SDS011;23709;48.078;11.684;2023-03-15T15:16:30;3.25;;;1.65;;
37873;SDS011;23709;48.078;11.684;2023-03-15T15:19:03;2.67;;;1.42;;
37873;SDS011;23709;48.078;11.684;2023-03-15T15:21:36;7.18;;;1.98;;
37873;SDS011;23709;48.078;11.684;2023-03-15T15:24:16;2.72;;;1.40;;
37873;SDS011;23709;48.078;11.684;2023-03-15T15:26:51;5.47;;;1.63;;
37873;SDS011;23709;48.078;11.684;2023-03-15T15:29:23;2.88;;;1.40;;
37873;SDS011;23709;48.078;11.684;2023-03-15T15:31:56;2.67;;;1.52;;
37873;SDS011;23709;48.078;11.684;2023-03-15T15:34:28;1.87;;;1.30;;
37873;SDS011;23709;48.078;11.684;2023-03-15T15:37:00;3.20;;;1.73;;
37873;SDS011;23709;48.078;11.684;2023-03-15T15:39:32;3.30;;;1.50;;
37873;SDS011;23709;48.078;11.684;2023-03-15T15:42:04;5.38;;;2.92;;
37873;SDS011;23709;48.078;11.684;2023-03-15T15:44:39;5.05;;;2.33;;
37873;SDS011;23709;48.078;11.684;2023-03-15T15:47:12;2.77;;;1.60;;
37873;SDS011;23709;48.078;11.684;2023-03-15T15:49:45;7.45;;;2.08;;
37873;SDS011;23709;48.078;11.684;2023-03-15T15:52:17;5.18;;;2.42;;
37873;SDS011;23709;48.078;11.684;2023-03-15T15:54:49;5.00;;;2.38;;
37873;SDS011;23709;48.078;11.684;2023-03-15T15:57:21;6.40;;;2.80;;
37873;SDS011;23709;48.078;11.684;2023-03-15T15:59:57;5.85;;;2.58;;
37873;SDS011;23709;48.078;11.684;2023-03-15T16:02:29;6.25;;;2.72;;
37873;SDS011;23709;48.078;11.684;2023-03-15T16:05:01;4.20;;;2.10;;
37873;SDS011;23709;48.078;11.684;2023-03-15T16:07:33;4.30;;;1.58;;
37873;SDS011;23709;48.078;11.684;2023-03-15T16:10:07;4.97;;;2.17;;
37873;SDS011;23709;48.078;11.684;2023-03-15T16:12:46;5.93;;;1.45;;
37873;SDS011;23709;48.078;11.684;2023-03-15T16:15:20;6.80;;;1.83;;
37873;SDS011;23709;48.078;11.684;2023-03-15T16:17:52;3.97;;;1.98;;
37873;SDS011;23709;48.078;11.684;2023-03-15T16:20:24;5.00;;;1.73;;
37873;SDS011;23709;48.078;11.684;2023-03-15T16:22:57;3.78;;;1.70;;
37873;SDS011;23709;48.078;11.684;2023-03-15T16:25:32;7.38;;;1.90;;
37873;SDS011;23709;48.078;11.684;2023-03-15T16:28:07;14.57;;;2.25;;
37873;SDS011;23709;48.078;11.684;2023-03-15T16:30:41;7.43;;;4.07;;
37873;SDS011;23709;48.078;11.684;2023-03-15T16:33:18;7.72;;;2.70;;
37873;SDS011;23709;48.078;11.684;2023-03-15T16:35:51;5.05;;;2.47;;
37873;SDS011;23709;48.078;11.684;2023-03-15T16:38:24;6.78;;;2.30;;
37873;SDS011;23709;48.078;11.684;2023-03-15T16:41:00;7.88;;;2.53;;
37873;SDS011;23709;48.078;11.684;2023-03-15T16:43:32;10.02;;;2.35;;
37873;SDS011;23709;48.078;11.684;2023-03-15T16:46:10;8.35;;;2.45;;
37873;SDS011;23709;48.078;11.684;2023-03-15T16:48:44;5.05;;;2.20;;
37873;SDS011;23709;48.078;11.684;2023-03-15T16:51:17;5.90;;;2.40;;
37873;SDS011;23709;48.078;11.684;2023-03-15T16:53:49;5.65;;;2.15;;
37873;SDS011;23709;48.078;11.684;2023-03-15T16:56:25;7.22;;;2.60;;
37873;SDS011;23709;48.078;11.684;2023-03-15T16:59:01;7.20;;;2.47;;
37873;SDS011;23709;48.078;11.684;2023-03-15T17:01:35;4.97;;;2.65;;
37873;SDS011;23709;48.078;11.684;2023-03-15T17:04:09;5.17;;;2.37;;